sensor_id;sensor_type;location;lat;lon;timestamp;P1;durP1;ratioP1;P2;durP2;ratioP2
84608;SDS011;74839;51.214;22.574;2024-03-25T00:00:41;35.23;;;18.00;;
84608;SDS011;74839;51.214;22.574;2024-03-25T00:03:07;32.47;;;17.60;;
84608;SDS011;74839;51.214;22.574;2024-03-25T00:05:33;85.60;;;59.33;;
84608;SDS011;74839;51.214;22.574;2024-03-25T00:07:59;45.47;;;27.83;;
84608;SDS011;74839;51.214;22.574;2024-03-25T00:10:25;76.00;;;36.40;;
84608;SDS011;74839;51.214;22.574;2024-03-25T00:12:51;90.67;;;41.70;;
84608;SDS011;74839;51.214;22.574;2024-03-25T00:15:19;33.20;;;18.57;;
84608;SDS011;74839;51.214;22.574;2024-03-25T00:17:46;29.90;;;16.87;;
84608;SDS011;74839;51.214;22.574;2024-03-25T00:20:13;29.73;;;17.47;;
84608;SDS011;74839;51.214;22.574;2024-03-25T00:22:40;31.67;;;18.40;;
84608;SDS011;74839;51.214;22.574;2024-03-25T00:25:06;28.93;;;17.63;;
84608;SDS011;74839;51.214;22.574;2024-03-25T00:27:32;33.37;;;18.77;;
84608;SDS011;74839;51.214;22.574;2024-03-25T00:29:58;36.83;;;19.43;;
84608;SDS011;74839;51.214;22.574;2024-03-25T00:32:24;31.10;;;19.13;;
84608;SDS011;74839;51.214;22.574;2024-03-25T00:34:50;32.67;;;18.07;;
84608;SDS011;74839;51.214;22.574;2024-03-25T00:37:16;33.17;;;18.73;;
84608;SDS011;74839;51.214;22.574;2024-03-25T00:39:42;32.57;;;17.93;;
84608;SDS011;74839;51.214;22.574;2024-03-25T00:42:08;30.40;;;17.10;;
84608;SDS011;74839;51.214;22.574;2024-03-25T00:44:34;32.90;;;17.90;;
84608;SDS011;74839;51.214;22.574;2024-03-25T00:47:00;41.67;;;27.63;;
84608;SDS011;74839;51.214;22.574;2024-03-25T00:49:26;107.97;;;74.37;;
84608;SDS011;74839;51.214;22.574;2024-03-25T00:51:52;65.63;;;35.67;;
84608;SDS011;74839;51.214;22.574;2024-03-25T00:54:18;38.53;;;23.13;;
84608;SDS011;74839;51.214;22.574;2024-03-25T00:56:44;32.50;;;19.17;;
84608;SDS011;74839;51.214;22.574;2024-03-25T00:59:11;35.80;;;22.53;;
84608;SDS011;74839;51.214;22.574;2024-03-25T01:01:37;35.67;;;21.03;;
84608;SDS011;74839;51.214;22.574;2024-03-25T01:04:03;37.43;;;22.60;;
84608;SDS011;74839;51.214;22.574;2024-03-25T01:06:29;34.37;;;19.10;;
84608;SDS011;74839;51.214;22.574;2024-03-25T01:08:56;28.67;;;17.93;;
84608;SDS011;74839;51.214;22.574;2024-03-25T01:11:22;35.47;;;17.90;;
84608;SDS011;74839;51.214;22.574;2024-03-25T01:13:48;39.90;;;21.00;;
84608;SDS011;74839;51.214;22.574;2024-03-25T01:16:14;39.33;;;20.43;;
84608;SDS011;74839;51.214;22.574;2024-03-25T01:18:41;40.80;;;25.50;;
84608;SDS011;74839;51.214;22.574;2024-03-25T01:21:08;64.20;;;43.33;;
84608;SDS011;74839;51.214;22.574;2024-03-25T01:23:34;37.23;;;23.70;;
84608;SDS011;74839;51.214;22.574;2024-03-25T01:26:00;33.83;;;20.40;;
84608;SDS011;74839;51.214;22.574;2024-03-25T01:28:26;29.63;;;16.87;;
84608;SDS011;74839;51.214;22.574;2024-03-25T01:30:52;30.13;;;15.37;;
84608;SDS011;74839;51.214;22.574;2024-03-25T01:33:19;31.50;;;16.67;;
84608;SDS011;74839;51.214;22.574;2024-03-25T01:35:45;27.33;;;17.10;;
84608;SDS011;74839;51.214;22.574;2024-03-25T01:38:11;29.80;;;17.43;;
84608;SDS011;74839;51.214;22.574;2024-03-25T01:40:37;26.60;;;16.97;;
84608;SDS011;74839;51.214;22.574;2024-03-25T01:43:03;29.30;;;17.52;;
84608;SDS011;74839;51.214;22.574;2024-03-25T01:45:30;24.30;;;14.23;;
84608;SDS011;74839;51.214;22.574;2024-03-25T01:47:56;21.57;;;13.37;;
84608;SDS011;74839;51.214;22.574;2024-03-25T01:50:23;16.53;;;12.40;;
84608;SDS011;74839;51.214;22.574;2024-03-25T01:52:49;34.80;;;26.20;;
84608;SDS011;74839;51.214;22.574;2024-03-25T01:55:15;26.95;;;20.98;;
84608;SDS011;74839;51.214;22.574;2024-03-25T01:57:45;20.97;;;16.37;;
84608;SDS011;74839;51.214;22.574;2024-03-25T02:00:12;20.50;;;14.90;;
84608;SDS011;74839;51.214;22.574;2024-03-25T02:02:39;18.93;;;13.40;;
84608;SDS011;74839;51.214;22.574;2024-03-25T02:05:10;21.97;;;14.03;;
84608;SDS011;74839;51.214;22.574;2024-03-25T02:07:37;20.90;;;14.57;;
84608;SDS011;74839;51.214;22.574;2024-03-25T02:10:03;22.60;;;15.17;;
84608;SDS011;74839;51.214;22.574;2024-03-25T02:12:30;21.00;;;14.47;;
84608;SDS011;74839;51.214;22.574;2024-03-25T02:14:57;30.10;;;19.17;;
84608;SDS011;74839;51.214;22.574;2024-03-25T02:17:23;28.20;;;15.73;;
84608;SDS011;74839;51.214;22.574;2024-03-25T02:19:49;31.10;;;19.30;;
84608;SDS011;74839;51.214;22.574;2024-03-25T02:22:15;26.97;;;15.63;;
84608;SDS011;74839;51.214;22.574;2024-03-25T02:24:42;26.50;;;17.20;;
84608;SDS011;74839;51.214;22.574;2024-03-25T02:27:09;48.83;;;34.47;;
84608;SDS011;74839;51.214;22.574;2024-03-25T02:29:39;39.17;;;25.37;;
84608;SDS011;74839;51.214;22.574;2024-03-25T02:32:06;32.57;;;20.83;;
84608;SDS011;74839;51.214;22.574;2024-03-25T02:34:35;45.70;;;26.30;;
84608;SDS011;74839;51.214;22.574;2024-03-25T02:37:01;35.57;;;23.37;;
84608;SDS011;74839;51.214;22.574;2024-03-25T02:39:27;43.40;;;23.83;;
84608;SDS011;74839;51.214;22.574;2024-03-25T02:41:54;39.43;;;25.07;;
84608;SDS011;74839;51.214;22.574;2024-03-25T02:44:20;36.40;;;21.43;;
84608;SDS011;74839;51.214;22.574;2024-03-25T02:46:46;31.27;;;18.13;;
84608;SDS011;74839;51.214;22.574;2024-03-25T02:49:13;33.13;;;17.73;;
84608;SDS011;74839;51.214;22.574;2024-03-25T02:51:39;39.90;;;22.40;;
84608;SDS011;74839;51.214;22.574;2024-03-25T02:54:05;23.63;;;15.40;;
84608;SDS011;74839;51.214;22.574;2024-03-25T02:56:31;27.23;;;15.20;;
84608;SDS011;74839;51.214;22.574;2024-03-25T02:58:57;24.13;;;14.90;;
84608;SDS011;74839;51.214;22.574;2024-03-25T03:01:23;25.07;;;16.87;;
84608;SDS011;74839;51.214;22.574;2024-03-25T03:03:49;25.53;;;18.13;;
84608;SDS011;74839;51.214;22.574;2024-03-25T03:06:15;26.20;;;20.43;;
84608;SDS011;74839;51.214;22.574;2024-03-25T03:08:41;29.80;;;21.93;;
84608;SDS011;74839;51.214;22.574;2024-03-25T03:11:07;25.93;;;18.87;;
84608;SDS011;74839;51.214;22.574;2024-03-25T03:13:33;26.53;;;18.10;;
84608;SDS011;74839;51.214;22.574;2024-03-25T03:15:59;26.83;;;18.73;;
84608;SDS011;74839;51.214;22.574;2024-03-25T03:18:25;29.97;;;19.90;;
84608;SDS011;74839;51.214;22.574;2024-03-25T03:20:51;24.10;;;16.27;;
84608;SDS011;74839;51.214;22.574;2024-03-25T03:23:20;19.67;;;13.87;;
84608;SDS011;74839;51.214;22.574;2024-03-25T03:25:46;19.47;;;12.90;;
84608;SDS011;74839;51.214;22.574;2024-03-25T03:28:12;26.23;;;16.87;;
84608;SDS011;74839;51.214;22.574;2024-03-25T03:30:40;23.03;;;15.73;;
84608;SDS011;74839;51.214;22.574;2024-03-25T03:33:06;22.23;;;14.77;;
84608;SDS011;74839;51.214;22.574;2024-03-25T03:35:35;20.87;;;13.77;;
84608;SDS011;74839;51.214;22.574;2024-03-25T03:38:01;22.33;;;14.20;;
84608;SDS011;74839;51.214;22.574;2024-03-25T03:40:28;23.93;;;15.37;;
84608;SDS011;74839;51.214;22.574;2024-03-25T03:42:54;27.33;;;16.57;;
84608;SDS011;74839;51.214;22.574;2024-03-25T03:45:21;27.93;;;16.83;;
84608;SDS011;74839;51.214;22.574;2024-03-25T03:47:47;25.23;;;14.47;;
84608;SDS011;74839;51.214;22.574;2024-03-25T03:50:13;26.67;;;16.97;;
84608;SDS011;74839;51.214;22.574;2024-03-25T03:52:39;23.27;;;14.63;;
84608;SDS011;74839;51.214;22.574;2024-03-25T03:55:05;46.23;;;22.67;;
84608;SDS011;74839;51.214;22.574;2024-03-25T03:57:31;29.33;;;15.30;;
84608;SDS011;74839;51.214;22.574;2024-03-25T03:59:57;35.00;;;19.47;;
84608;SDS011;74839;51.214;22.574;2024-03-25T04:02:26;43.67;;;22.43;;
84608;SDS011;74839;51.214;22.574;2024-03-25T04:04:52;22.03;;;14.90;;
84608;SDS011;74839;51.214;22.574;2024-03-25T04:07:18;25.73;;;16.83;;
84608;SDS011;74839;51.214;22.574;2024-03-25T04:09:44;28.60;;;17.30;;
84608;SDS011;74839;51.214;22.574;2024-03-25T04:12:10;35.77;;;22.93;;
84608;SDS011;74839;51.214;22.574;2024-03-25T04:14:36;37.73;;;24.47;;
84608;SDS011;74839;51.214;22.574;2024-03-25T04:17:03;33.23;;;21.57;;
84608;SDS011;74839;51.214;22.574;2024-03-25T04:19:30;35.13;;;20.13;;
84608;SDS011;74839;51.214;22.574;2024-03-25T04:21:56;31.70;;;19.40;;
84608;SDS011;74839;51.214;22.574;2024-03-25T04:24:22;34.53;;;20.70;;
84608;SDS011;74839;51.214;22.574;2024-03-25T04:26:48;30.20;;;16.40;;
84608;SDS011;74839;51.214;22.574;2024-03-25T04:29:15;26.73;;;17.60;;
84608;SDS011;74839;51.214;22.574;2024-03-25T04:31:41;44.40;;;30.27;;
84608;SDS011;74839;51.214;22.574;2024-03-25T04:34:07;32.70;;;23.03;;
84608;SDS011;74839;51.214;22.574;2024-03-25T04:36:33;46.57;;;33.80;;
84608;SDS011;74839;51.214;22.574;2024-03-25T04:38:59;33.50;;;23.20;;
84608;SDS011;74839;51.214;22.574;2024-03-25T04:41:25;29.37;;;17.67;;
84608;SDS011;74839;51.214;22.574;2024-03-25T04:43:51;31.70;;;19.90;;
84608;SDS011;74839;51.214;22.574;2024-03-25T04:46:17;47.70;;;33.90;;
84608;SDS011;74839;51.214;22.574;2024-03-25T04:48:43;58.93;;;40.03;;
84608;SDS011;74839;51.214;22.574;2024-03-25T04:51:09;50.40;;;30.90;;
84608;SDS011;74839;51.214;22.574;2024-03-25T04:53:35;45.50;;;27.40;;
84608;SDS011;74839;51.214;22.574;2024-03-25T04:56:01;52.33;;;27.80;;
84608;SDS011;74839;51.214;22.574;2024-03-25T04:58:28;53.17;;;26.13;;
84608;SDS011;74839;51.214;22.574;2024-03-25T05:00:54;55.60;;;26.80;;
84608;SDS011;74839;51.214;22.574;2024-03-25T05:03:20;66.63;;;29.07;;
84608;SDS011;74839;51.214;22.574;2024-03-25T05:05:46;59.83;;;28.23;;
84608;SDS011;74839;51.214;22.574;2024-03-25T05:08:13;59.57;;;27.03;;
84608;SDS011;74839;51.214;22.574;2024-03-25T05:10:39;51.83;;;23.37;;
84608;SDS011;74839;51.214;22.574;2024-03-25T05:13:05;42.83;;;19.63;;
84608;SDS011;74839;51.214;22.574;2024-03-25T05:15:31;33.63;;;18.70;;
84608;SDS011;74839;51.214;22.574;2024-03-25T05:17:57;30.67;;;18.00;;
84608;SDS011;74839;51.214;22.574;2024-03-25T05:20:25;27.40;;;16.83;;
84608;SDS011;74839;51.214;22.574;2024-03-25T05:22:51;28.20;;;17.17;;
84608;SDS011;74839;51.214;22.574;2024-03-25T05:25:17;25.00;;;16.20;;
84608;SDS011;74839;51.214;22.574;2024-03-25T05:27:43;23.77;;;15.90;;
84608;SDS011;74839;51.214;22.574;2024-03-25T05:30:10;23.80;;;14.90;;
84608;SDS011;74839;51.214;22.574;2024-03-25T05:32:36;24.30;;;16.87;;
84608;SDS011;74839;51.214;22.574;2024-03-25T05:35:02;24.63;;;15.20;;
84608;SDS011;74839;51.214;22.574;2024-03-25T05:37:28;25.43;;;15.40;;
84608;SDS011;74839;51.214;22.574;2024-03-25T05:39:57;22.97;;;16.10;;
84608;SDS011;74839;51.214;22.574;2024-03-25T05:42:23;22.97;;;14.97;;
84608;SDS011;74839;51.214;22.574;2024-03-25T05:44:49;25.93;;;16.63;;
84608;SDS011;74839;51.214;22.574;2024-03-25T05:47:15;26.43;;;16.50;;
84608;SDS011;74839;51.214;22.574;2024-03-25T05:49:41;24.10;;;15.50;;
84608;SDS011;74839;51.214;22.574;2024-03-25T05:52:07;26.07;;;16.10;;
84608;SDS011;74839;51.214;22.574;2024-03-25T05:54:33;24.93;;;15.57;;
84608;SDS011;74839;51.214;22.574;2024-03-25T05:56:59;25.37;;;17.20;;
84608;SDS011;74839;51.214;22.574;2024-03-25T05:59:25;26.17;;;17.57;;
84608;SDS011;74839;51.214;22.574;2024-03-25T06:01:51;25.13;;;15.43;;
84608;SDS011;74839;51.214;22.574;2024-03-25T06:04:17;28.40;;;16.03;;
84608;SDS011;74839;51.214;22.574;2024-03-25T06:06:44;24.20;;;14.70;;
84608;SDS011;74839;51.214;22.574;2024-03-25T06:09:10;23.93;;;14.80;;
84608;SDS011;74839;51.214;22.574;2024-03-25T06:11:36;25.40;;;15.33;;
84608;SDS011;74839;51.214;22.574;2024-03-25T06:14:02;26.87;;;14.50;;
84608;SDS011;74839;51.214;22.574;2024-03-25T06:16:28;24.60;;;13.97;;
84608;SDS011;74839;51.214;22.574;2024-03-25T06:18:54;23.60;;;13.70;;
84608;SDS011;74839;51.214;22.574;2024-03-25T06:21:20;21.97;;;13.33;;
84608;SDS011;74839;51.214;22.574;2024-03-25T06:23:47;20.50;;;13.30;;
84608;SDS011;74839;51.214;22.574;2024-03-25T06:26:13;21.27;;;12.97;;
84608;SDS011;74839;51.214;22.574;2024-03-25T06:28:39;21.17;;;11.93;;
84608;SDS011;74839;51.214;22.574;2024-03-25T06:31:05;24.37;;;13.73;;
84608;SDS011;74839;51.214;22.574;2024-03-25T06:33:49;18.83;;;12.30;;
84608;SDS011;74839;51.214;22.574;2024-03-25T06:36:33;24.90;;;13.10;;
84608;SDS011;74839;51.214;22.574;2024-03-25T06:39:00;20.63;;;12.40;;
84608;SDS011;74839;51.214;22.574;2024-03-25T06:41:26;19.53;;;12.43;;
84608;SDS011;74839;51.214;22.574;2024-03-25T06:43:52;16.67;;;11.97;;
84608;SDS011;74839;51.214;22.574;2024-03-25T06:46:18;16.03;;;11.33;;
84608;SDS011;74839;51.214;22.574;2024-03-25T06:48:44;17.93;;;12.23;;
84608;SDS011;74839;51.214;22.574;2024-03-25T06:51:10;20.53;;;11.40;;
84608;SDS011;74839;51.214;22.574;2024-03-25T06:53:36;19.57;;;12.00;;
84608;SDS011;74839;51.214;22.574;2024-03-25T06:56:02;16.70;;;11.60;;
84608;SDS011;74839;51.214;22.574;2024-03-25T06:58:28;20.80;;;11.70;;
84608;SDS011;74839;51.214;22.574;2024-03-25T07:00:55;15.93;;;10.87;;
84608;SDS011;74839;51.214;22.574;2024-03-25T07:03:22;16.00;;;10.97;;
84608;SDS011;74839;51.214;22.574;2024-03-25T07:05:48;17.17;;;11.13;;
84608;SDS011;74839;51.214;22.574;2024-03-25T07:08:15;18.70;;;10.63;;
84608;SDS011;74839;51.214;22.574;2024-03-25T07:10:41;21.97;;;10.83;;
84608;SDS011;74839;51.214;22.574;2024-03-25T07:13:08;21.93;;;10.17;;
84608;SDS011;74839;51.214;22.574;2024-03-25T07:15:34;20.20;;;11.40;;
84608;SDS011;74839;51.214;22.574;2024-03-25T07:18:00;15.47;;;10.67;;
84608;SDS011;74839;51.214;22.574;2024-03-25T07:20:26;15.80;;;10.27;;
84608;SDS011;74839;51.214;22.574;2024-03-25T07:22:52;17.50;;;11.33;;
84608;SDS011;74839;51.214;22.574;2024-03-25T07:25:24;16.70;;;11.33;;
84608;SDS011;74839;51.214;22.574;2024-03-25T07:27:50;20.80;;;12.10;;
84608;SDS011;74839;51.214;22.574;2024-03-25T07:30:17;18.67;;;11.63;;
84608;SDS011;74839;51.214;22.574;2024-03-25T07:32:43;17.73;;;11.27;;
84608;SDS011;74839;51.214;22.574;2024-03-25T07:35:12;14.67;;;10.83;;
84608;SDS011;74839;51.214;22.574;2024-03-25T07:37:41;20.50;;;11.73;;
84608;SDS011;74839;51.214;22.574;2024-03-25T07:40:07;17.43;;;11.80;;
84608;SDS011;74839;51.214;22.574;2024-03-25T07:42:35;17.53;;;11.37;;
84608;SDS011;74839;51.214;22.574;2024-03-25T07:45:01;18.87;;;12.40;;
84608;SDS011;74839;51.214;22.574;2024-03-25T07:47:27;19.73;;;13.03;;
84608;SDS011;74839;51.214;22.574;2024-03-25T07:49:53;19.13;;;10.87;;
84608;SDS011;74839;51.214;22.574;2024-03-25T07:52:19;18.90;;;12.67;;
84608;SDS011;74839;51.214;22.574;2024-03-25T07:54:45;17.90;;;11.30;;
84608;SDS011;74839;51.214;22.574;2024-03-25T07:57:11;20.57;;;11.47;;
84608;SDS011;74839;51.214;22.574;2024-03-25T07:59:37;14.97;;;11.17;;
84608;SDS011;74839;51.214;22.574;2024-03-25T08:02:03;18.67;;;11.60;;
84608;SDS011;74839;51.214;22.574;2024-03-25T08:04:29;19.20;;;11.70;;
84608;SDS011;74839;51.214;22.574;2024-03-25T08:06:55;16.47;;;10.73;;
84608;SDS011;74839;51.214;22.574;2024-03-25T08:09:21;16.73;;;10.87;;
84608;SDS011;74839;51.214;22.574;2024-03-25T08:11:47;17.90;;;10.87;;
84608;SDS011;74839;51.214;22.574;2024-03-25T08:14:13;13.13;;;9.80;;
84608;SDS011;74839;51.214;22.574;2024-03-25T08:16:40;16.30;;;10.07;;
84608;SDS011;74839;51.214;22.574;2024-03-25T08:19:06;13.47;;;9.07;;
84608;SDS011;74839;51.214;22.574;2024-03-25T08:21:32;16.43;;;10.73;;
84608;SDS011;74839;51.214;22.574;2024-03-25T08:23:58;15.90;;;10.40;;
84608;SDS011;74839;51.214;22.574;2024-03-25T08:26:24;15.77;;;10.43;;
84608;SDS011;74839;51.214;22.574;2024-03-25T08:28:50;15.30;;;10.87;;
84608;SDS011;74839;51.214;22.574;2024-03-25T08:31:16;20.47;;;10.47;;
84608;SDS011;74839;51.214;22.574;2024-03-25T08:33:42;14.93;;;9.67;;
84608;SDS011;74839;51.214;22.574;2024-03-25T08:36:08;16.20;;;11.07;;
84608;SDS011;74839;51.214;22.574;2024-03-25T08:38:34;15.37;;;10.37;;
84608;SDS011;74839;51.214;22.574;2024-03-25T08:41:00;16.17;;;11.03;;
84608;SDS011;74839;51.214;22.574;2024-03-25T08:43:26;15.37;;;10.33;;
84608;SDS011;74839;51.214;22.574;2024-03-25T08:45:52;17.60;;;10.70;;
84608;SDS011;74839;51.214;22.574;2024-03-25T08:48:18;15.97;;;10.60;;
84608;SDS011;74839;51.214;22.574;2024-03-25T08:50:44;17.53;;;10.53;;
84608;SDS011;74839;51.214;22.574;2024-03-25T08:53:11;18.00;;;10.60;;
84608;SDS011;74839;51.214;22.574;2024-03-25T08:55:37;15.03;;;9.90;;
84608;SDS011;74839;51.214;22.574;2024-03-25T08:58:04;15.27;;;9.10;;
84608;SDS011;74839;51.214;22.574;2024-03-25T09:00:30;12.07;;;8.53;;
84608;SDS011;74839;51.214;22.574;2024-03-25T09:02:56;13.43;;;9.03;;
84608;SDS011;74839;51.214;22.574;2024-03-25T09:05:22;13.43;;;8.97;;
84608;SDS011;74839;51.214;22.574;2024-03-25T09:07:51;13.00;;;8.57;;
84608;SDS011;74839;51.214;22.574;2024-03-25T09:10:17;10.47;;;7.37;;
84608;SDS011;74839;51.214;22.574;2024-03-25T09:13:02;10.23;;;7.00;;
84608;SDS011;74839;51.214;22.574;2024-03-25T09:15:29;14.90;;;7.20;;
84608;SDS011;74839;51.214;22.574;2024-03-25T09:17:55;10.60;;;7.63;;
84608;SDS011;74839;51.214;22.574;2024-03-25T09:20:21;12.93;;;7.73;;
84608;SDS011;74839;51.214;22.574;2024-03-25T09:22:47;10.33;;;7.97;;
84608;SDS011;74839;51.214;22.574;2024-03-25T09:25:14;14.40;;;7.40;;
84608;SDS011;74839;51.214;22.574;2024-03-25T09:27:40;10.30;;;6.87;;
84608;SDS011;74839;51.214;22.574;2024-03-25T09:30:07;10.57;;;7.30;;
84608;SDS011;74839;51.214;22.574;2024-03-25T09:32:34;12.37;;;7.53;;
84608;SDS011;74839;51.214;22.574;2024-03-25T09:35:00;12.20;;;8.07;;
84608;SDS011;74839;51.214;22.574;2024-03-25T09:37:26;13.63;;;7.53;;
84608;SDS011;74839;51.214;22.574;2024-03-25T09:39:52;13.47;;;7.90;;
84608;SDS011;74839;51.214;22.574;2024-03-25T09:42:20;10.67;;;7.10;;
84608;SDS011;74839;51.214;22.574;2024-03-25T09:44:48;10.98;;;7.07;;
84608;SDS011;74839;51.214;22.574;2024-03-25T09:47:14;10.13;;;7.27;;
84608;SDS011;74839;51.214;22.574;2024-03-25T09:49:41;9.70;;;7.10;;
84608;SDS011;74839;51.214;22.574;2024-03-25T09:52:08;9.17;;;6.67;;
84608;SDS011;74839;51.214;22.574;2024-03-25T09:54:34;9.27;;;6.37;;
84608;SDS011;74839;51.214;22.574;2024-03-25T09:57:00;8.70;;;6.13;;
84608;SDS011;74839;51.214;22.574;2024-03-25T09:59:27;10.23;;;6.40;;
84608;SDS011;74839;51.214;22.574;2024-03-25T10:01:53;9.13;;;6.33;;
84608;SDS011;74839;51.214;22.574;2024-03-25T10:04:20;9.23;;;6.97;;
84608;SDS011;74839;51.214;22.574;2024-03-25T10:06:46;13.82;;;6.38;;
84608;SDS011;74839;51.214;22.574;2024-03-25T10:09:13;13.15;;;6.00;;
84608;SDS011;74839;51.214;22.574;2024-03-25T10:11:39;9.15;;;7.20;;
84608;SDS011;74839;51.214;22.574;2024-03-25T10:14:05;7.07;;;5.50;;
84608;SDS011;74839;51.214;22.574;2024-03-25T10:16:31;6.95;;;5.72;;
84608;SDS011;74839;51.214;22.574;2024-03-25T10:18:57;7.38;;;5.70;;
84608;SDS011;74839;51.214;22.574;2024-03-25T10:21:23;8.82;;;5.35;;
84608;SDS011;74839;51.214;22.574;2024-03-25T10:23:49;6.20;;;4.85;;
84608;SDS011;74839;51.214;22.574;2024-03-25T10:26:25;9.13;;;5.47;;
84608;SDS011;74839;51.214;22.574;2024-03-25T10:29:04;7.68;;;5.90;;
84608;SDS011;74839;51.214;22.574;2024-03-25T10:31:35;8.97;;;6.00;;
84608;SDS011;74839;51.214;22.574;2024-03-25T10:34:01;7.70;;;5.82;;
84608;SDS011;74839;51.214;22.574;2024-03-25T10:36:28;8.00;;;5.50;;
84608;SDS011;74839;51.214;22.574;2024-03-25T10:38:54;9.38;;;6.68;;
84608;SDS011;74839;51.214;22.574;2024-03-25T10:41:21;11.90;;;5.93;;
84608;SDS011;74839;51.214;22.574;2024-03-25T10:43:47;10.57;;;6.88;;
84608;SDS011;74839;51.214;22.574;2024-03-25T10:46:22;6.45;;;5.00;;
84608;SDS011;74839;51.214;22.574;2024-03-25T10:51:16;7.53;;;5.57;;
84608;SDS011;74839;51.214;22.574;2024-03-25T10:53:43;8.65;;;5.82;;
84608;SDS011;74839;51.214;22.574;2024-03-25T10:56:10;7.60;;;4.60;;
84608;SDS011;74839;51.214;22.574;2024-03-25T10:58:37;8.30;;;5.70;;
84608;SDS011;74839;51.214;22.574;2024-03-25T11:01:04;12.57;;;7.60;;
84608;SDS011;74839;51.214;22.574;2024-03-25T11:03:30;12.07;;;5.82;;
84608;SDS011;74839;51.214;22.574;2024-03-25T11:05:57;7.65;;;4.78;;
84608;SDS011;74839;51.214;22.574;2024-03-25T11:08:29;8.32;;;5.15;;
84608;SDS011;74839;51.214;22.574;2024-03-25T11:10:56;6.75;;;5.00;;
84608;SDS011;74839;51.214;22.574;2024-03-25T11:13:22;6.03;;;4.70;;
84608;SDS011;74839;51.214;22.574;2024-03-25T11:15:49;10.05;;;5.72;;
84608;SDS011;74839;51.214;22.574;2024-03-25T11:18:22;6.53;;;4.95;;
84608;SDS011;74839;51.214;22.574;2024-03-25T11:21:03;7.82;;;5.45;;
84608;SDS011;74839;51.214;22.574;2024-03-25T11:23:38;7.38;;;4.45;;
84608;SDS011;74839;51.214;22.574;2024-03-25T11:26:16;8.00;;;4.30;;
84608;SDS011;74839;51.214;22.574;2024-03-25T11:28:42;7.63;;;4.90;;
84608;SDS011;74839;51.214;22.574;2024-03-25T11:31:08;5.05;;;4.47;;
84608;SDS011;74839;51.214;22.574;2024-03-25T11:33:36;6.97;;;4.57;;
84608;SDS011;74839;51.214;22.574;2024-03-25T11:36:02;5.65;;;5.05;;
84608;SDS011;74839;51.214;22.574;2024-03-25T11:38:28;5.97;;;4.32;;
84608;SDS011;74839;51.214;22.574;2024-03-25T11:40:54;7.68;;;4.55;;
84608;SDS011;74839;51.214;22.574;2024-03-25T11:43:21;7.78;;;4.70;;
84608;SDS011;74839;51.214;22.574;2024-03-25T11:45:48;7.63;;;4.55;;
84608;SDS011;74839;51.214;22.574;2024-03-25T11:48:15;7.10;;;4.30;;
84608;SDS011;74839;51.214;22.574;2024-03-25T11:50:41;7.05;;;4.18;;
84608;SDS011;74839;51.214;22.574;2024-03-25T11:53:07;6.05;;;4.00;;
84608;SDS011;74839;51.214;22.574;2024-03-25T11:55:33;8.55;;;4.05;;
84608;SDS011;74839;51.214;22.574;2024-03-25T11:57:59;6.72;;;4.47;;
84608;SDS011;74839;51.214;22.574;2024-03-25T12:00:25;6.25;;;4.20;;
84608;SDS011;74839;51.214;22.574;2024-03-25T12:02:51;8.18;;;4.82;;
84608;SDS011;74839;51.214;22.574;2024-03-25T12:05:18;8.25;;;5.55;;
84608;SDS011;74839;51.214;22.574;2024-03-25T12:07:44;9.95;;;5.07;;
84608;SDS011;74839;51.214;22.574;2024-03-25T12:10:10;7.15;;;5.15;;
84608;SDS011;74839;51.214;22.574;2024-03-25T12:12:55;7.30;;;3.72;;
84608;SDS011;74839;51.214;22.574;2024-03-25T12:15:21;6.20;;;3.30;;
84608;SDS011;74839;51.214;22.574;2024-03-25T12:17:47;5.57;;;4.17;;
84608;SDS011;74839;51.214;22.574;2024-03-25T12:20:14;7.27;;;4.40;;
84608;SDS011;74839;51.214;22.574;2024-03-25T12:22:40;6.30;;;4.10;;
84608;SDS011;74839;51.214;22.574;2024-03-25T12:25:07;5.20;;;3.77;;
84608;SDS011;74839;51.214;22.574;2024-03-25T12:27:34;3.77;;;3.23;;
84608;SDS011;74839;51.214;22.574;2024-03-25T12:30:01;5.00;;;3.23;;
84608;SDS011;74839;51.214;22.574;2024-03-25T12:32:31;3.83;;;3.20;;
84608;SDS011;74839;51.214;22.574;2024-03-25T12:34:58;3.17;;;2.87;;
84608;SDS011;74839;51.214;22.574;2024-03-25T12:37:26;6.20;;;3.73;;
84608;SDS011;74839;51.214;22.574;2024-03-25T12:39:52;3.77;;;3.20;;
84608;SDS011;74839;51.214;22.574;2024-03-25T12:42:18;3.50;;;2.97;;
84608;SDS011;74839;51.214;22.574;2024-03-25T12:44:44;3.93;;;3.10;;
84608;SDS011;74839;51.214;22.574;2024-03-25T12:47:11;2.90;;;2.67;;
84608;SDS011;74839;51.214;22.574;2024-03-25T12:49:37;3.23;;;2.37;;
84608;SDS011;74839;51.214;22.574;2024-03-25T12:52:04;3.17;;;2.87;;
84608;SDS011;74839;51.214;22.574;2024-03-25T12:54:31;3.37;;;2.60;;
84608;SDS011;74839;51.214;22.574;2024-03-25T12:56:57;2.40;;;2.20;;
84608;SDS011;74839;51.214;22.574;2024-03-25T12:59:23;4.85;;;2.65;;
84608;SDS011;74839;51.214;22.574;2024-03-25T13:01:49;6.65;;;4.03;;
84608;SDS011;74839;51.214;22.574;2024-03-25T13:04:16;5.22;;;3.40;;
84608;SDS011;74839;51.214;22.574;2024-03-25T13:06:42;3.13;;;2.50;;
84608;SDS011;74839;51.214;22.574;2024-03-25T13:09:08;5.22;;;3.28;;
84608;SDS011;74839;51.214;22.574;2024-03-25T13:11:34;16.70;;;7.00;;
84608;SDS011;74839;51.214;22.574;2024-03-25T13:14:00;11.23;;;5.30;;
84608;SDS011;74839;51.214;22.574;2024-03-25T13:16:27;10.50;;;4.55;;
84608;SDS011;74839;51.214;22.574;2024-03-25T13:18:53;7.47;;;3.53;;
84608;SDS011;74839;51.214;22.574;2024-03-25T13:21:19;6.18;;;4.05;;
84608;SDS011;74839;51.214;22.574;2024-03-25T13:23:45;6.97;;;3.42;;
84608;SDS011;74839;51.214;22.574;2024-03-25T13:26:11;10.23;;;4.32;;
84608;SDS011;74839;51.214;22.574;2024-03-25T13:28:37;12.10;;;6.45;;
84608;SDS011;74839;51.214;22.574;2024-03-25T13:31:03;15.82;;;7.65;;
84608;SDS011;74839;51.214;22.574;2024-03-25T13:33:30;6.70;;;4.43;;
84608;SDS011;74839;51.214;22.574;2024-03-25T13:35:56;7.25;;;4.47;;
84608;SDS011;74839;51.214;22.574;2024-03-25T13:38:22;6.10;;;4.72;;
84608;SDS011;74839;51.214;22.574;2024-03-25T13:40:48;4.20;;;3.78;;
84608;SDS011;74839;51.214;22.574;2024-03-25T13:43:14;4.97;;;3.78;;
84608;SDS011;74839;51.214;22.574;2024-03-25T13:45:45;4.50;;;3.40;;
84608;SDS011;74839;51.214;22.574;2024-03-25T13:48:12;3.90;;;3.00;;
84608;SDS011;74839;51.214;22.574;2024-03-25T13:50:38;4.10;;;2.92;;
84608;SDS011;74839;51.214;22.574;2024-03-25T13:53:04;5.13;;;3.22;;
84608;SDS011;74839;51.214;22.574;2024-03-25T13:55:30;3.83;;;3.22;;
84608;SDS011;74839;51.214;22.574;2024-03-25T13:57:56;6.10;;;3.40;;
84608;SDS011;74839;51.214;22.574;2024-03-25T14:00:22;4.68;;;3.42;;
84608;SDS011;74839;51.214;22.574;2024-03-25T14:02:48;6.15;;;2.67;;
84608;SDS011;74839;51.214;22.574;2024-03-25T14:05:14;3.17;;;2.40;;
84608;SDS011;74839;51.214;22.574;2024-03-25T14:07:40;6.75;;;2.92;;
84608;SDS011;74839;51.214;22.574;2024-03-25T14:10:07;4.07;;;2.75;;
84608;SDS011;74839;51.214;22.574;2024-03-25T14:12:36;4.90;;;2.75;;
84608;SDS011;74839;51.214;22.574;2024-03-25T14:15:02;4.40;;;3.15;;